createdAt,value
2018-04-30T00:00:27.965Z,96.70
2018-04-30T00:02:55.412Z,96.60
2018-04-30T00:05:22.902Z,95.60
2018-04-30T00:07:50.428Z,96.20
2018-04-30T00:10:17.901Z,96.00
2018-04-30T00:12:45.366Z,96.70
2018-04-30T00:15:12.970Z,96.40
2018-04-30T00:17:40.472Z,95.70
2018-04-30T00:20:08.530Z,95.10
2018-04-30T00:22:36.012Z,96.10
2018-04-30T00:25:03.484Z,95.60
2018-04-30T00:27:31.033Z,95.90
2018-04-30T00:29:58.532Z,95.80
2018-04-30T00:32:26.018Z,95.90
2018-04-30T00:34:53.483Z,96.30
2018-04-30T00:37:20.964Z,96.10
2018-04-30T00:39:48.448Z,96.60
2018-04-30T00:42:17.633Z,97.30
2018-04-30T00:44:48.970Z,97.30
2018-04-30T00:47:18.135Z,97.50
2018-04-30T00:49:45.620Z,97.50
2018-04-30T00:52:13.081Z,96.80
2018-04-30T00:54:52.324Z,96.60
2018-04-30T00:57:19.807Z,97.00
2018-04-30T00:59:55.877Z,97.20
2018-04-30T01:02:23.358Z,97.30
2018-04-30T01:04:50.810Z,97.50
2018-04-30T01:07:19.221Z,97.60
2018-04-30T01:09:46.708Z,97.80
2018-04-30T01:12:19.082Z,98.30
2018-04-30T01:14:46.544Z,98.50
2018-04-30T01:17:14.511Z,98.50
2018-04-30T01:19:41.982Z,98.80
2018-04-30T01:22:09.480Z,98.70
2018-04-30T01:24:36.965Z,98.60
2018-04-30T01:27:04.525Z,98.90
2018-04-30T01:29:32.034Z,98.70
2018-04-30T01:31:59.532Z,99.10
2018-04-30T01:34:27.789Z,99.00
2018-04-30T01:36:55.277Z,99.40
2018-04-30T01:39:22.783Z,99.70
2018-04-30T01:41:50.258Z,99.90
2018-04-30T01:44:17.762Z,99.90
2018-04-30T01:46:45.246Z,99.90
2018-04-30T01:49:12.706Z,99.90
2018-04-30T01:51:40.209Z,99.90
2018-04-30T01:54:07.662Z,99.90
2018-04-30T01:56:35.151Z,99.90
2018-04-30T01:59:02.655Z,99.90
2018-04-30T02:01:30.832Z,99.90
2018-04-30T02:03:58.319Z,99.60
2018-04-30T02:06:25.793Z,99.40
2018-04-30T02:08:53.284Z,98.80
2018-04-30T02:11:20.774Z,97.80
2018-04-30T02:13:48.225Z,98.30
2018-04-30T02:16:15.785Z,99.20
2018-04-30T02:18:44.177Z,99.90
2018-04-30T02:21:11.637Z,99.90
2018-04-30T02:23:39.131Z,99.90
2018-04-30T02:26:06.584Z,99.90
2018-04-30T02:28:34.074Z,99.90
2018-04-30T02:31:05.994Z,99.90
2018-04-30T02:33:33.821Z,99.90
2018-04-30T02:36:01.274Z,99.90
2018-04-30T02:38:28.735Z,99.90
2018-04-30T02:40:56.262Z,99.90
2018-04-30T02:43:23.739Z,99.90
2018-04-30T02:45:52.252Z,99.90
2018-04-30T02:48:19.714Z,99.90
2018-04-30T02:50:48.577Z,99.90
2018-04-30T02:53:16.049Z,99.90
2018-04-30T02:55:43.520Z,99.90
2018-04-30T02:58:11.024Z,99.90
2018-04-30T03:00:38.519Z,99.90
2018-04-30T03:03:10.898Z,99.90
2018-04-30T03:05:38.362Z,99.90
2018-04-30T03:08:05.891Z,99.90
2018-04-30T03:10:33.354Z,99.90
2018-04-30T03:13:01.769Z,99.90
2018-04-30T03:15:29.308Z,99.90
2018-04-30T03:18:01.377Z,99.90
2018-04-30T03:20:28.844Z,99.90
2018-04-30T03:22:56.716Z,99.90
2018-04-30T03:25:24.486Z,99.90
2018-04-30T03:27:51.973Z,99.90
2018-04-30T03:30:19.490Z,99.90
2018-04-30T03:32:46.941Z,99.90
2018-04-30T03:35:14.431Z,99.90
2018-04-30T03:37:41.929Z,99.90
2018-04-30T03:40:10.673Z,99.90
2018-04-30T03:42:38.905Z,99.80
2018-04-30T03:45:06.360Z,99.80
2018-04-30T03:47:37.513Z,98.90
2018-04-30T03:50:05.189Z,98.40
2018-04-30T03:52:32.679Z,98.50
2018-04-30T03:55:00.143Z,98.50
2018-04-30T03:57:28.167Z,98.40
2018-04-30T03:59:55.713Z,98.50
2018-04-30T04:05:39.111Z,98.30
2018-04-30T04:08:07.940Z,97.90
2018-04-30T04:10:35.409Z,97.90
2018-04-30T04:13:03.007Z,98.00
2018-04-30T04:15:30.465Z,98.00
2018-04-30T04:18:00.746Z,98.00
2018-04-30T04:20:31.702Z,97.90
2018-04-30T04:22:59.215Z,98.00
2018-04-30T04:25:26.778Z,98.10
2018-04-30T04:27:54.233Z,98.10
2018-04-30T04:30:21.737Z,98.10
2018-04-30T04:32:52.573Z,98.20
2018-04-30T04:35:20.053Z,98.30
2018-04-30T04:37:48.281Z,98.60
2018-04-30T04:40:16.311Z,98.60
2018-04-30T04:42:43.783Z,98.50
2018-04-30T04:45:11.293Z,98.70
2018-04-30T04:47:38.749Z,99.00
2018-04-30T04:50:06.233Z,98.80
2018-04-30T04:52:34.489Z,98.70
2018-04-30T04:55:01.950Z,98.70
2018-04-30T04:57:31.162Z,98.30
2018-04-30T05:00:00.310Z,98.50
2018-04-30T05:02:27.806Z,98.40
2018-04-30T05:05:02.890Z,98.30
2018-04-30T05:07:31.909Z,98.40
2018-04-30T05:10:00.157Z,98.50
2018-04-30T05:12:27.632Z,98.50
2018-04-30T05:14:56.046Z,98.40
2018-04-30T05:17:24.318Z,98.30
2018-04-30T05:19:51.842Z,98.20
2018-04-30T05:22:19.522Z,97.50
2018-04-30T05:24:46.984Z,96.90
2018-04-30T05:27:15.317Z,96.10
2018-04-30T05:29:42.788Z,95.30
2018-04-30T05:32:10.280Z,94.90
2018-04-30T05:34:37.747Z,94.10
2018-04-30T05:37:05.318Z,93.40
2018-04-30T05:39:32.760Z,93.20
2018-04-30T05:42:00.209Z,93.10
2018-04-30T05:44:27.693Z,93.30
2018-04-30T05:46:55.152Z,93.30
2018-04-30T05:49:23.226Z,93.70
2018-04-30T05:51:50.709Z,93.70
2018-04-30T05:54:18.328Z,93.90
2018-04-30T05:56:46.689Z,94.70
2018-04-30T05:59:14.141Z,94.70
2018-04-30T06:01:43.308Z,95.80
2018-04-30T06:04:11.016Z,95.80
2018-04-30T06:06:38.482Z,96.40
2018-04-30T06:09:05.932Z,96.70
2018-04-30T06:11:33.429Z,97.20
2018-04-30T06:14:01.510Z,97.40
2018-04-30T06:16:28.978Z,97.80
2018-04-30T06:18:56.583Z,97.40
2018-04-30T06:21:24.036Z,97.60
2018-04-30T06:23:51.880Z,98.10
2018-04-30T06:26:19.410Z,98.00
2018-04-30T06:28:46.876Z,98.10
2018-04-30T06:31:14.379Z,99.90
2018-04-30T06:33:41.867Z,97.80
2018-04-30T06:36:10.705Z,96.90
2018-04-30T06:38:38.191Z,96.90
2018-04-30T06:41:05.651Z,96.90
2018-04-30T06:43:33.193Z,95.70
2018-04-30T06:46:00.651Z,95.40
2018-04-30T06:48:28.772Z,95.60
2018-04-30T06:50:56.246Z,95.40
2018-04-30T06:53:23.741Z,95.40
2018-04-30T06:55:51.997Z,95.80
2018-04-30T06:58:20.357Z,96.30
2018-04-30T07:00:47.850Z,96.30
2018-04-30T07:03:16.791Z,97.30
2018-04-30T07:05:44.264Z,98.60
2018-04-30T07:08:12.677Z,99.90
2018-04-30T07:10:40.141Z,99.90
2018-04-30T07:13:07.625Z,99.90
2018-04-30T07:15:35.077Z,99.90
2018-04-30T07:18:02.817Z,99.90
2018-04-30T07:20:30.464Z,99.90
2018-04-30T07:22:57.965Z,99.90
2018-04-30T07:25:27.025Z,99.90
2018-04-30T07:27:54.569Z,99.90
2018-04-30T07:30:22.030Z,99.90
2018-04-30T07:32:49.514Z,99.90
2018-04-30T07:35:16.987Z,99.90
2018-04-30T07:37:44.481Z,99.90
2018-04-30T07:40:11.963Z,99.90
2018-04-30T07:42:40.245Z,99.90
2018-04-30T07:45:08.793Z,99.90
2018-04-30T07:47:36.276Z,99.90
2018-04-30T07:50:04.700Z,99.90
2018-04-30T07:52:32.333Z,99.90
2018-04-30T07:54:59.792Z,99.90
2018-04-30T07:57:27.245Z,99.90
2018-04-30T07:59:55.524Z,99.90
2018-04-30T08:02:23.180Z,99.90
2018-04-30T08:04:51.462Z,99.90
2018-04-30T08:07:22.726Z,99.90
2018-04-30T08:09:55.388Z,99.90
2018-04-30T08:12:22.886Z,99.90
2018-04-30T08:14:50.336Z,99.90
2018-04-30T08:17:17.825Z,99.90
2018-04-30T08:19:45.363Z,99.90
2018-04-30T08:22:17.407Z,99.90
2018-04-30T08:24:47.918Z,99.90
2018-04-30T08:27:15.447Z,99.90
2018-04-30T08:29:43.039Z,99.90
2018-04-30T08:32:10.524Z,99.90
2018-04-30T08:34:38.967Z,99.90
2018-04-30T08:37:10.206Z,99.90
2018-04-30T08:39:37.658Z,99.90
2018-04-30T08:42:05.160Z,99.90
2018-04-30T08:44:33.321Z,99.90
2018-04-30T08:47:00.841Z,99.90
2018-04-30T08:49:28.416Z,99.90
2018-04-30T08:51:56.002Z,99.90
2018-04-30T08:54:27.765Z,99.90
2018-04-30T08:56:55.338Z,99.90
2018-04-30T08:59:23.416Z,99.90
2018-04-30T09:01:50.910Z,99.90
2018-04-30T09:04:18.407Z,99.90
2018-04-30T09:06:45.854Z,99.90
2018-04-30T09:09:17.198Z,99.80
2018-04-30T09:11:44.695Z,99.70
2018-04-30T09:14:12.970Z,99.60
2018-04-30T09:16:40.809Z,99.60
2018-04-30T09:19:08.297Z,99.90
2018-04-30T09:21:35.826Z,99.80
2018-04-30T09:24:03.277Z,99.90
2018-04-30T09:26:30.772Z,99.90
2018-04-30T09:28:58.271Z,99.90
2018-04-30T09:31:25.783Z,99.80
2018-04-30T09:33:53.248Z,99.90
2018-04-30T09:36:21.704Z,99.00
2018-04-30T09:38:49.925Z,95.40
2018-04-30T09:41:17.436Z,95.30
2018-04-30T09:43:44.896Z,96.00
2018-04-30T09:46:12.349Z,96.50
2018-04-30T09:48:41.104Z,97.30
2018-04-30T09:51:08.746Z,97.30
2018-04-30T09:53:43.595Z,96.40
2018-04-30T09:56:11.601Z,96.40
2018-04-30T09:58:39.093Z,96.60
2018-04-30T10:01:06.933Z,96.10
2018-04-30T10:03:34.387Z,94.90
2018-04-30T10:06:02.226Z,94.20
2018-04-30T10:08:30.516Z,93.50
2018-04-30T10:10:58.752Z,92.20
2018-04-30T10:13:26.453Z,92.20
2018-04-30T10:15:53.906Z,93.10
2018-04-30T10:18:21.918Z,93.10
2018-04-30T10:20:49.481Z,92.50
2018-04-30T10:23:17.026Z,92.20
2018-04-30T10:25:44.436Z,91.90
2018-04-30T10:28:11.922Z,92.10
2018-04-30T10:30:39.411Z,92.40
2018-04-30T10:33:06.896Z,92.70
2018-04-30T10:35:34.348Z,92.20
2018-04-30T10:38:01.939Z,92.40
2018-04-30T10:40:30.407Z,90.80
2018-04-30T10:42:57.902Z,90.80
2018-04-30T10:45:25.386Z,91.40
2018-04-30T10:47:52.851Z,91.10
2018-04-30T10:50:20.366Z,91.30
2018-04-30T10:52:47.860Z,91.30
2018-04-30T10:55:22.928Z,90.90
2018-04-30T10:57:50.412Z,91.40
2018-04-30T11:00:17.914Z,90.20
2018-04-30T11:02:45.428Z,90.10
2018-04-30T11:05:12.888Z,90.20
2018-04-30T11:07:40.513Z,90.00
2018-04-30T11:10:10.853Z,89.30
2018-04-30T11:12:38.313Z,89.70
2018-04-30T11:15:05.765Z,88.30
2018-04-30T11:17:33.475Z,82.80
2018-04-30T11:20:01.469Z,82.80
2018-04-30T11:22:28.926Z,83.60
2018-04-30T11:24:59.783Z,84.40
2018-04-30T11:27:27.557Z,83.40
2018-04-30T11:29:55.014Z,81.40
2018-04-30T11:32:22.672Z,79.20
2018-04-30T11:34:50.974Z,79.50
2018-04-30T11:37:18.504Z,79.70
2018-04-30T11:39:46.984Z,80.20
2018-04-30T11:42:14.504Z,80.10
2018-04-30T11:44:42.000Z,77.00
2018-04-30T11:47:10.478Z,76.90
2018-04-30T11:49:37.920Z,76.00
2018-04-30T11:52:05.403Z,74.10
2018-04-30T11:54:32.960Z,74.70
2018-04-30T11:57:00.478Z,74.40
2018-04-30T11:59:27.961Z,73.90
2018-04-30T12:01:55.480Z,74.70
2018-04-30T12:04:22.947Z,73.10
2018-04-30T12:06:50.496Z,74.00
2018-04-30T12:09:18.498Z,72.40
2018-04-30T12:11:45.961Z,72.50
2018-04-30T12:14:13.564Z,72.40
2018-04-30T12:16:41.122Z,70.00
2018-04-30T12:19:08.515Z,70.70
2018-04-30T12:21:36.001Z,70.20
2018-04-30T12:24:03.481Z,71.70
2018-04-30T12:26:32.724Z,70.60
2018-04-30T12:29:00.439Z,70.60
2018-04-30T12:31:27.932Z,71.90
2018-04-30T12:33:55.393Z,68.00
2018-04-30T12:36:22.884Z,68.40
2018-04-30T12:38:51.283Z,70.40
2018-04-30T12:41:18.759Z,68.90
2018-04-30T12:43:47.071Z,64.80
2018-04-30T12:46:16.175Z,62.00
2018-04-30T12:48:43.685Z,61.90
2018-04-30T12:51:11.220Z,61.30
2018-04-30T12:53:38.805Z,60.80
2018-04-30T12:56:09.575Z,59.00
2018-04-30T12:58:37.047Z,60.00
2018-04-30T13:01:06.397Z,58.90
2018-04-30T13:03:34.615Z,59.60
2018-04-30T13:06:02.121Z,59.60
2018-04-30T13:08:30.442Z,58.40
2018-04-30T13:10:57.912Z,60.50
2018-04-30T13:13:25.475Z,57.30
2018-04-30T13:15:53.183Z,57.90
2018-04-30T13:18:21.413Z,56.60
2018-04-30T13:20:49.283Z,56.60
2018-04-30T13:23:16.774Z,55.50
2018-04-30T13:25:44.261Z,55.20
2018-04-30T13:28:11.740Z,55.40
2018-04-30T13:30:39.232Z,55.90
2018-04-30T13:33:06.709Z,55.60
2018-04-30T13:35:34.264Z,54.60
2018-04-30T13:38:01.719Z,55.40
2018-04-30T13:40:29.391Z,56.30
2018-04-30T13:42:58.459Z,54.30
2018-04-30T13:45:25.969Z,54.30
2018-04-30T13:47:53.631Z,54.90
2018-04-30T13:50:21.144Z,54.80
2018-04-30T13:52:48.629Z,54.90
2018-04-30T13:55:16.762Z,54.70
2018-04-30T13:57:44.246Z,53.80
2018-04-30T14:00:11.725Z,53.60
2018-04-30T14:02:39.188Z,53.50
2018-04-30T14:05:07.444Z,53.30
2018-04-30T14:07:37.329Z,54.70
2018-04-30T14:10:04.801Z,54.70
2018-04-30T14:12:32.285Z,53.50
2018-04-30T14:15:00.697Z,52.80
2018-04-30T14:17:28.189Z,53.80
2018-04-30T14:19:55.670Z,54.90
2018-04-30T14:22:23.198Z,54.30
2018-04-30T14:24:50.697Z,54.10
2018-04-30T14:27:18.948Z,52.60
2018-04-30T14:29:46.430Z,52.60
2018-04-30T14:32:14.889Z,52.30
2018-04-30T14:34:42.344Z,53.20
2018-04-30T14:37:09.818Z,51.40
2018-04-30T14:39:37.281Z,51.40
2018-04-30T14:42:04.777Z,51.30
2018-04-30T14:44:32.266Z,49.90
2018-04-30T14:47:00.559Z,50.40
2018-04-30T14:49:28.278Z,50.40
2018-04-30T14:51:55.779Z,50.40
2018-04-30T14:54:23.251Z,50.60
2018-04-30T14:56:51.594Z,51.10
2018-04-30T14:59:18.972Z,51.20
2018-04-30T15:01:46.447Z,49.80
2018-04-30T15:04:14.041Z,50.70
2018-04-30T15:06:42.242Z,50.00
2018-04-30T15:09:09.733Z,50.50
2018-04-30T15:11:38.026Z,50.10
2018-04-30T15:14:09.336Z,50.70
2018-04-30T15:16:36.824Z,49.60
2018-04-30T15:19:04.307Z,48.80
2018-04-30T15:21:31.768Z,48.90
2018-04-30T15:23:59.245Z,50.20
2018-04-30T15:26:26.740Z,48.60
2018-04-30T15:28:58.144Z,48.20
2018-04-30T15:31:27.161Z,46.90
2018-04-30T15:33:54.653Z,46.90
2018-04-30T15:36:22.156Z,46.10
2018-04-30T15:38:49.622Z,46.40
2018-04-30T15:41:17.115Z,46.60
2018-04-30T15:43:44.812Z,45.40
2018-04-30T15:46:12.401Z,45.60
2018-04-30T15:48:40.228Z,47.00
2018-04-30T15:51:07.800Z,46.70
2018-04-30T15:53:35.296Z,47.20
2018-04-30T15:56:02.801Z,47.60
2018-04-30T15:58:30.486Z,46.20
2018-04-30T16:00:57.991Z,46.20
2018-04-30T16:03:25.511Z,45.70
2018-04-30T16:05:53.667Z,46.10
2018-04-30T16:08:21.124Z,46.40
2018-04-30T16:10:48.627Z,46.80
2018-04-30T16:13:16.089Z,46.70
2018-04-30T16:15:44.099Z,45.10
2018-04-30T16:18:11.558Z,45.60
2018-04-30T16:20:39.010Z,45.30
2018-04-30T16:23:06.604Z,46.10
2018-04-30T16:25:34.098Z,45.30
2018-04-30T16:28:02.207Z,45.50
2018-04-30T16:30:34.177Z,45.70
2018-04-30T16:33:03.630Z,46.50
2018-04-30T16:35:31.167Z,46.40
2018-04-30T16:37:58.647Z,46.70
2018-04-30T16:40:26.133Z,47.10
2018-04-30T16:42:53.617Z,46.80
2018-04-30T16:45:21.744Z,47.00
2018-04-30T16:47:49.413Z,47.50
2018-04-30T16:50:16.909Z,45.40
2018-04-30T16:52:44.420Z,45.90
2018-04-30T16:55:12.197Z,46.00
2018-04-30T16:57:39.649Z,46.20
2018-04-30T17:00:07.142Z,46.20
2018-04-30T17:02:36.292Z,47.70
2018-04-30T17:05:05.336Z,47.60
2018-04-30T17:07:32.793Z,48.40
2018-04-30T17:10:00.320Z,49.00
2018-04-30T17:12:27.836Z,49.10
2018-04-30T17:14:55.535Z,49.50
2018-04-30T17:17:23.078Z,50.00
2018-04-30T17:19:50.545Z,50.00
2018-04-30T17:22:18.017Z,50.30
2018-04-30T17:24:45.497Z,50.10
2018-04-30T17:29:46.891Z,51.20
2018-04-30T17:32:15.555Z,52.50
2018-04-30T17:34:43.067Z,52.40
2018-04-30T17:37:10.553Z,52.40
2018-04-30T17:39:38.973Z,53.00
2018-04-30T17:42:06.458Z,54.10
2018-04-30T17:44:33.918Z,54.40
2018-04-30T17:47:02.292Z,54.90
2018-04-30T17:49:29.658Z,54.80
2018-04-30T17:51:57.160Z,55.30
2018-04-30T17:54:24.633Z,55.90
2018-04-30T17:56:52.881Z,56.20
2018-04-30T17:59:20.348Z,56.30
2018-04-30T18:01:47.847Z,56.80
2018-04-30T18:04:15.343Z,56.70
2018-04-30T18:06:43.626Z,57.00
2018-04-30T18:09:11.099Z,57.00
2018-04-30T18:11:38.587Z,57.00
2018-04-30T18:14:07.476Z,57.60
2018-04-30T18:16:46.026Z,57.60
2018-04-30T18:19:13.522Z,57.10
2018-04-30T18:21:40.993Z,57.40
2018-04-30T18:24:08.644Z,57.70
2018-04-30T18:26:36.235Z,57.70
2018-04-30T18:29:04.385Z,58.30
2018-04-30T18:31:32.245Z,58.30
2018-04-30T18:33:59.758Z,58.10
2018-04-30T18:36:28.026Z,58.40
2018-04-30T18:38:55.540Z,58.40
2018-04-30T18:41:23.065Z,58.60
2018-04-30T18:43:52.241Z,59.10
2018-04-30T18:46:19.748Z,59.00
2018-04-30T18:48:47.257Z,59.00
2018-04-30T18:51:14.944Z,59.30
2018-04-30T18:53:43.187Z,59.90
2018-04-30T18:56:10.694Z,59.80
2018-04-30T18:58:38.187Z,59.50
2018-04-30T19:01:05.694Z,60.00
2018-04-30T19:03:33.177Z,60.10
2018-04-30T19:06:00.680Z,60.60
2018-04-30T19:08:28.231Z,60.90
2018-04-30T19:10:55.721Z,61.00
2018-04-30T19:13:23.460Z,61.20
2018-04-30T19:15:51.086Z,61.30
2018-04-30T19:18:18.566Z,61.60
2018-04-30T19:20:46.220Z,61.40
2018-04-30T19:23:13.727Z,61.40
2018-04-30T19:25:41.395Z,61.90
2018-04-30T19:28:08.993Z,62.10
2018-04-30T19:30:36.809Z,61.90
2018-04-30T19:33:04.893Z,62.00
2018-04-30T19:35:37.164Z,62.40
2018-04-30T19:38:05.460Z,63.10
2018-04-30T19:40:33.018Z,62.40
2018-04-30T19:43:00.505Z,62.40
2018-04-30T19:45:28.003Z,62.80
2018-04-30T19:47:55.482Z,62.80
2018-04-30T19:50:26.685Z,63.00
2018-04-30T19:52:55.732Z,63.40
2018-04-30T19:55:23.168Z,63.40
2018-04-30T19:57:50.636Z,63.80
2018-04-30T20:00:18.147Z,63.80
2018-04-30T20:02:45.625Z,63.70
2018-04-30T20:05:19.567Z,64.00
2018-04-30T20:07:47.169Z,64.00
2018-04-30T20:10:14.828Z,64.00
2018-04-30T20:12:42.365Z,64.20
2018-04-30T20:15:10.577Z,64.70
2018-04-30T20:17:38.330Z,64.70
2018-04-30T20:20:05.878Z,65.00
2018-04-30T20:22:34.906Z,65.60
2018-04-30T20:25:02.399Z,65.60
2018-04-30T20:27:29.855Z,65.50
2018-04-30T20:29:57.349Z,65.80
2018-04-30T20:32:24.901Z,65.80
2018-04-30T20:34:52.880Z,66.10
2018-04-30T20:37:20.427Z,66.00
2018-04-30T20:39:47.936Z,66.30
2018-04-30T20:42:15.619Z,66.60
2018-04-30T20:44:43.133Z,66.30
2018-04-30T20:47:10.621Z,66.20
2018-04-30T20:49:48.796Z,66.60
2018-04-30T20:52:16.260Z,66.80
2018-04-30T20:54:43.867Z,66.70
2018-04-30T20:57:11.433Z,66.60
2018-04-30T20:59:38.923Z,66.90
2018-04-30T21:02:07.734Z,66.70
2018-04-30T21:04:35.184Z,67.80
2018-04-30T21:07:02.810Z,67.70
2018-04-30T21:09:30.627Z,68.00
2018-04-30T21:11:58.209Z,68.00
2018-04-30T21:14:25.700Z,68.50
2018-04-30T21:16:53.164Z,69.10
2018-04-30T21:19:21.351Z,69.30
2018-04-30T21:21:49.488Z,69.40
2018-04-30T21:24:17.053Z,69.70
2018-04-30T21:26:44.522Z,69.40
2018-04-30T21:29:12.014Z,69.80
2018-04-30T21:31:40.487Z,70.20
2018-04-30T21:34:08.074Z,70.90
2018-04-30T21:36:35.632Z,71.80
2018-04-30T21:39:03.113Z,71.30
2018-04-30T21:41:30.710Z,73.30
2018-04-30T21:43:59.973Z,73.20
2018-04-30T21:46:27.662Z,73.20
2018-04-30T21:48:55.581Z,72.20
2018-04-30T21:51:24.861Z,71.30
2018-04-30T21:53:53.133Z,71.20
2018-04-30T21:56:20.579Z,71.20
2018-04-30T21:58:48.065Z,71.40
2018-04-30T22:01:16.841Z,71.60
2018-04-30T22:03:44.314Z,71.50
2018-04-30T22:06:16.271Z,71.60
2018-04-30T22:08:44.319Z,71.40
2018-04-30T22:11:11.886Z,71.80
2018-04-30T22:13:39.398Z,72.50
2018-04-30T22:16:06.884Z,74.10
2018-04-30T22:18:34.363Z,73.70
2018-04-30T22:21:03.539Z,73.00
2018-04-30T22:23:31.009Z,73.40
2018-04-30T22:25:58.511Z,72.80
2018-04-30T22:28:26.049Z,74.30
2018-04-30T22:30:54.293Z,73.60
2018-04-30T22:33:22.669Z,73.40
2018-04-30T22:35:53.947Z,73.80
2018-04-30T22:38:21.397Z,73.70
2018-04-30T22:40:49.665Z,74.30
2018-04-30T22:43:17.903Z,74.30
2018-04-30T22:45:45.443Z,74.90
2018-04-30T22:48:12.931Z,75.50
2018-04-30T22:50:40.409Z,75.10
2018-04-30T22:53:10.603Z,75.70
2018-04-30T22:55:38.313Z,75.70
2018-04-30T22:58:07.506Z,76.60
2018-04-30T23:00:35.077Z,76.40
2018-04-30T23:03:03.436Z,76.00
2018-04-30T23:05:31.579Z,76.40
2018-04-30T23:07:59.033Z,77.70
2018-04-30T23:10:26.521Z,78.10
2018-04-30T23:12:53.989Z,78.00
2018-04-30T23:15:22.231Z,77.20
2018-04-30T23:17:49.713Z,77.20
2018-04-30T23:20:17.182Z,76.60
2018-04-30T23:22:50.540Z,77.20
2018-04-30T23:25:18.007Z,77.20
2018-04-30T23:27:46.144Z,77.10
2018-04-30T23:30:13.600Z,78.30
2018-04-30T23:32:41.082Z,77.90
2018-04-30T23:35:08.547Z,77.40
2018-04-30T23:37:39.201Z,77.20
2018-04-30T23:40:06.663Z,76.90
2018-04-30T23:42:34.169Z,78.50
2018-04-30T23:45:01.679Z,77.40
2018-04-30T23:47:30.092Z,77.80
2018-04-30T23:49:57.540Z,77.50
2018-04-30T23:52:28.250Z,77.60
2018-04-30T23:54:56.503Z,77.90
2018-04-30T23:57:24.885Z,78.00
2018-04-30T23:59:52.353Z,77.70
